METAR LIMJ - Aeroporto di Genova Sestri GOA

Genova / Sestri, Italy (LIMJ) 44-25N 008-51E 3M

Jul 18, 2018 - 03:50 PM EDT / 2018.07.18 1950 UTC

Wind: Variable at 2 MPH (2 KT):0

Visibility: greater than 7 mile(s):0

Sky conditions: partly cloudy

Temperature: 75 F (24 C)

Dew Point: 71 F (22 C)

Relative Humidity: 88%

Pressure (altimeter): 29.94 in. Hg (1014 hPa)

ob: LIMJ 181950Z VRB02KT 9999 SCT015 24/22 Q1014

cycle: 20

Dati METAR in tempo reale